Time;durP1;ratioP1;P1;durP2;ratioP2;P2;SDS_P1;SDS_P2;PMS_P1;PMS_P2;Temp;Humidity;BMP_temperature;BMP_pressure;BME280_temperature;BME280_humidity;BME280_pressure;Samples;Min_cycle;Max_cycle;Signal;HPM_P1;HPM_P2
2023/05/20 00:01:25;;;;;;;8.70;7.80;;;10.30;99.90;;;;;;5009339;28;20438;-71
2023/05/20 00:03:53;;;;;;;10.10;8.53;;;10.20;99.90;;;;;;5009155;28;20477;-71
2023/05/20 00:06:21;;;;;;;9.80;8.57;;;10.20;99.90;;;;;;5008991;28;20550;-71
2023/05/20 00:08:49;;;;;;;8.47;7.67;;;10.10;99.90;;;;;;5009442;28;20468;-71
2023/05/20 00:11:17;;;;;;;9.87;8.80;;;10.10;99.90;;;;;;5009576;28;20477;-71
2023/05/20 00:13:45;;;;;;;9.77;8.87;;;10.00;99.90;;;;;;5009335;28;20449;-71
2023/05/20 00:16:14;;;;;;;11.17;9.53;;;9.90;99.90;;;;;;5009413;28;20471;-71
2023/05/20 00:18:42;;;;;;;11.63;10.53;;;9.80;99.90;;;;;;5009362;28;20438;-71
2023/05/20 00:21:10;;;;;;;9.90;8.87;;;9.80;99.90;;;;;;5009731;28;20452;-71
2023/05/20 00:23:38;;;;;;;9.50;8.70;;;9.80;99.90;;;;;;5008951;28;20992;-71
2023/05/20 00:26:06;;;;;;;9.10;8.30;;;9.80;99.90;;;;;;5009295;28;20457;-70
2023/05/20 00:28:34;;;;;;;13.47;8.70;;;9.80;99.90;;;;;;5009432;28;20448;-71
2023/05/20 00:31:02;;;;;;;9.93;8.70;;;9.90;99.90;;;;;;5009642;28;20476;-71
2023/05/20 00:33:31;;;;;;;10.97;8.57;;;9.90;99.90;;;;;;5009216;28;20511;-71
2023/05/20 00:35:59;;;;;;;10.10;9.10;;;9.90;99.90;;;;;;5009229;28;20465;-71
2023/05/20 00:38:27;;;;;;;9.87;8.97;;;10.00;99.90;;;;;;5009513;28;20503;-71
2023/05/20 00:40:55;;;;;;;10.13;8.90;;;10.00;99.90;;;;;;5009438;28;20446;-71
2023/05/20 00:43:25;;;;;;;11.90;9.77;;;10.00;99.90;;;;;;5009039;28;20449;-71
2023/05/20 00:45:53;;;;;;;10.73;9.73;;;10.00;99.90;;;;;;5009238;28;20442;-70
2023/05/20 00:48:22;;;;;;;9.43;8.53;;;10.10;99.90;;;;;;5009363;28;20483;-71
2023/05/20 00:50:52;;;;;;;10.80;9.60;;;10.20;99.90;;;;;;5009444;28;20496;-70
2023/05/20 00:53:21;;;;;;;10.87;9.77;;;10.30;99.90;;;;;;5008452;28;20540;-70
2023/05/20 00:55:49;;;;;;;10.40;9.40;;;10.50;99.90;;;;;;5008937;28;20544;-71
2023/05/20 00:58:17;;;;;;;10.47;9.40;;;10.50;99.90;;;;;;5008548;28;20928;-71
2023/05/20 01:00:46;;;;;;;11.10;10.00;;;10.60;99.90;;;;;;5009590;28;20499;-71
2023/05/20 01:03:14;;;;;;;10.20;9.30;;;10.70;99.90;;;;;;5012245;28;20477;-71
2023/05/20 01:05:42;;;;;;;10.97;9.87;;;10.80;99.90;;;;;;5012760;28;20526;-71
2023/05/20 01:08:11;;;;;;;11.93;10.73;;;10.80;99.90;;;;;;5012600;28;20448;-71
2023/05/20 01:10:45;;;;;;;11.53;9.97;;;10.80;99.90;;;;;;5013319;28;20452;-71
2023/05/20 01:13:17;;;;;;;10.70;9.60;;;10.90;99.90;;;;;;5012392;28;20813;-71
2023/05/20 01:15:46;;;;;;;9.80;8.90;;;11.00;99.90;;;;;;5012855;28;20554;-71
2023/05/20 01:18:17;;;;;;;9.50;8.50;;;11.10;99.90;;;;;;5013114;28;20466;-72
2023/05/20 01:20:48;;;;;;;8.03;7.33;;;11.10;99.90;;;;;;5012557;28;20464;-71
2023/05/20 01:23:17;;;;;;;10.70;9.60;;;11.20;99.90;;;;;;5012518;28;20519;-71
2023/05/20 01:25:45;;;;;;;10.63;9.60;;;11.20;99.90;;;;;;5012207;28;20478;-71
2023/05/20 01:28:16;;;;;;;10.53;9.60;;;11.20;99.90;;;;;;5012616;28;20444;-70
2023/05/20 01:30:49;;;;;;;11.93;9.60;;;11.20;99.90;;;;;;5012669;28;20473;-70
2023/05/20 01:33:22;;;;;;;10.63;9.57;;;11.10;99.90;;;;;;5011175;28;20469;-69
2023/05/20 01:35:50;;;;;;;10.10;9.10;;;11.10;99.90;;;;;;5012200;28;20899;-70
2023/05/20 01:38:20;;;;;;;9.33;8.43;;;11.10;99.90;;;;;;5012008;28;20449;-70
2023/05/20 01:40:49;;;;;;;9.40;8.60;;;11.10;99.90;;;;;;5012400;28;20442;-70
2023/05/20 01:43:18;;;;;;;7.97;7.20;;;11.00;99.90;;;;;;5011426;28;20955;-70
2023/05/20 01:45:46;;;;;;;8.73;7.77;;;11.00;99.90;;;;;;5012233;28;20446;-70
2023/05/20 01:48:14;;;;;;;9.23;7.67;;;11.00;99.90;;;;;;5012135;28;20490;-70
2023/05/20 01:50:42;;;;;;;11.20;8.90;;;10.90;99.90;;;;;;5011668;28;20447;-70
2023/05/20 01:53:10;;;;;;;11.33;8.80;;;10.80;99.90;;;;;;5011421;28;20996;-71
2023/05/20 01:55:39;;;;;;;9.83;8.93;;;10.60;99.90;;;;;;5011296;28;20442;-71
2023/05/20 01:58:07;;;;;;;10.20;9.30;;;10.60;99.90;;;;;;5012033;28;20455;-71
2023/05/20 02:00:35;;;;;;;9.40;8.60;;;10.70;99.90;;;;;;5011177;28;20978;-71
2023/05/20 02:03:03;;;;;;;9.07;8.20;;;10.60;99.90;;;;;;5010651;28;20438;-71
2023/05/20 02:05:31;;;;;;;9.67;8.77;;;10.60;99.90;;;;;;5011665;28;20443;-71
2023/05/20 02:08:00;;;;;;;9.10;8.20;;;10.50;99.90;;;;;;5011414;28;20469;-71
2023/05/20 02:10:28;;;;;;;10.10;9.20;;;10.50;99.90;;;;;;5011049;28;20959;-71
2023/05/20 02:12:58;;;;;;;11.00;10.00;;;10.60;99.90;;;;;;5010863;28;20570;-70
2023/05/20 02:15:26;;;;;;;11.47;10.30;;;10.50;99.90;;;;;;5011672;28;20444;-70
2023/05/20 02:17:53;;;;;;;11.10;10.10;;;10.50;99.90;;;;;;5011200;28;20836;-71
2023/05/20 02:20:21;;;;;;;10.27;9.27;;;10.50;99.90;;;;;;5011852;28;20835;-71
2023/05/20 02:22:49;;;;;;;10.03;9.10;;;10.60;99.90;;;;;;5011471;28;20554;-70
2023/05/20 02:25:17;;;;;;;10.50;9.50;;;10.50;99.90;;;;;;5011333;28;20448;-71
2023/05/20 02:27:45;;;;;;;10.63;9.33;;;10.60;99.90;;;;;;5011564;28;20471;-70
2023/05/20 02:30:16;;;;;;;9.80;8.90;;;10.50;99.90;;;;;;5011065;28;20443;-70
2023/05/20 02:32:44;;;;;;;10.57;9.60;;;10.50;99.90;;;;;;5010763;28;20505;-70
2023/05/20 02:35:11;;;;;;;10.93;9.83;;;10.50;99.90;;;;;;5011007;28;20504;-70
2023/05/20 02:37:40;;;;;;;11.47;10.37;;;10.60;99.90;;;;;;5011122;28;20532;-70
2023/05/20 02:40:09;;;;;;;10.63;9.63;;;10.60;99.90;;;;;;5011146;28;20501;-70
2023/05/20 02:42:37;;;;;;;9.90;9.10;;;10.60;99.90;;;;;;5010550;28;20530;-70
2023/05/20 02:45:06;;;;;;;9.13;8.23;;;10.60;99.90;;;;;;5011105;28;20466;-70
2023/05/20 02:47:35;;;;;;;10.23;9.20;;;10.60;99.90;;;;;;5010749;28;20476;-71
2023/05/20 02:50:03;;;;;;;9.57;8.70;;;10.50;99.90;;;;;;5011002;28;20454;-70
2023/05/20 02:52:31;;;;;;;10.43;9.53;;;10.50;99.90;;;;;;5010238;28;20553;-71
2023/05/20 02:54:59;;;;;;;11.67;10.37;;;10.50;99.90;;;;;;5010633;28;20474;-71
2023/05/20 02:57:28;;;;;;;10.60;9.60;;;10.30;99.90;;;;;;5010685;28;20460;-70
2023/05/20 02:59:56;;;;;;;10.17;9.27;;;10.40;99.90;;;;;;5010620;28;20930;-70
2023/05/20 03:02:24;;;;;;;9.80;9.00;;;10.30;99.90;;;;;;5010634;28;20497;-71
2023/05/20 03:04:53;;;;;;;10.30;9.40;;;10.20;99.90;;;;;;5010210;28;20454;-71
2023/05/20 03:07:21;;;;;;;8.97;8.17;;;10.20;99.90;;;;;;5010186;28;20473;-70
2023/05/20 03:09:49;;;;;;;8.70;7.90;;;10.20;99.90;;;;;;5010876;28;20532;-70
2023/05/20 03:12:18;;;;;;;9.47;8.57;;;10.20;99.90;;;;;;5010447;28;20586;-71
2023/05/20 03:14:46;;;;;;;8.97;8.10;;;10.20;99.90;;;;;;5010787;28;20447;-71
2023/05/20 03:17:14;;;;;;;9.93;8.50;;;10.30;99.90;;;;;;5010149;28;20473;-71
2023/05/20 03:19:42;;;;;;;8.50;7.70;;;10.20;99.90;;;;;;5010563;28;20440;-70
2023/05/20 03:22:11;;;;;;;9.37;8.03;;;10.30;99.90;;;;;;5010219;28;20452;-71
2023/05/20 03:24:41;;;;;;;7.23;6.63;;;10.20;99.90;;;;;;5009295;28;20449;-71
2023/05/20 03:27:09;;;;;;;8.03;7.20;;;10.20;99.90;;;;;;5010523;28;20581;-70
2023/05/20 03:29:37;;;;;;;7.93;7.13;;;10.20;99.90;;;;;;5010294;28;20540;-70
2023/05/20 03:32:06;;;;;;;9.80;8.40;;;10.30;99.90;;;;;;5009072;28;20449;-70
2023/05/20 03:34:38;;;;;;;9.90;8.83;;;10.30;99.90;;;;;;5009915;28;20974;-70
2023/05/20 03:37:05;;;;;;;8.77;7.80;;;10.30;99.90;;;;;;5009716;28;20506;-70
2023/05/20 03:39:35;;;;;;;8.60;7.67;;;10.20;99.90;;;;;;5010108;28;20801;-70
2023/05/20 03:42:03;;;;;;;8.93;8.13;;;10.20;99.90;;;;;;5010201;28;20524;-71
2023/05/20 03:44:31;;;;;;;7.90;7.20;;;10.10;99.90;;;;;;5010177;28;20503;-70
2023/05/20 03:46:59;;;;;;;8.83;7.90;;;10.10;99.90;;;;;;5009821;28;20465;-70
2023/05/20 03:49:27;;;;;;;8.37;7.57;;;10.10;99.90;;;;;;5009941;28;20442;-70
2023/05/20 03:51:54;;;;;;;8.17;7.37;;;10.10;99.90;;;;;;5010029;28;20533;-71
2023/05/20 03:54:22;;;;;;;8.80;7.87;;;10.10;99.90;;;;;;5009927;28;20474;-70
2023/05/20 03:56:52;;;;;;;8.00;7.27;;;10.10;99.90;;;;;;5009961;28;20469;-70
2023/05/20 03:59:21;;;;;;;9.13;8.30;;;10.10;99.90;;;;;;5009551;28;20505;-70
2023/05/20 04:01:49;;;;;;;7.70;7.00;;;10.20;99.90;;;;;;5009938;28;20448;-71
2023/05/20 04:04:17;;;;;;;7.50;6.90;;;10.20;99.90;;;;;;5009149;28;20496;-71
2023/05/20 04:06:45;;;;;;;8.70;7.57;;;10.30;99.90;;;;;;5009857;28;20886;-70
2023/05/20 04:09:13;;;;;;;8.27;7.07;;;10.40;99.90;;;;;;5008137;28;20499;-71
2023/05/20 04:11:41;;;;;;;8.40;7.50;;;10.50;99.90;;;;;;5009876;28;20442;-70
2023/05/20 04:14:10;;;;;;;7.67;7.07;;;10.50;99.90;;;;;;5008864;28;20484;-70
2023/05/20 04:16:38;;;;;;;7.77;7.07;;;10.60;99.90;;;;;;5009574;28;20593;-70
2023/05/20 04:19:06;;;;;;;7.57;6.87;;;10.70;99.90;;;;;;5010085;28;20477;-70
2023/05/20 04:21:34;;;;;;;7.27;6.77;;;10.80;99.90;;;;;;5009871;28;20564;-70
2023/05/20 04:24:02;;;;;;;7.93;7.03;;;10.90;99.90;;;;;;5009564;28;20442;-70
2023/05/20 04:26:30;;;;;;;8.10;7.40;;;11.00;99.90;;;;;;5009686;28;20497;-71
2023/05/20 04:29:00;;;;;;;7.70;6.93;;;11.00;99.90;;;;;;5009170;28;20486;-70
2023/05/20 04:31:29;;;;;;;8.20;7.40;;;11.10;99.90;;;;;;5009686;28;20451;-71
2023/05/20 04:33:57;;;;;;;8.67;7.93;;;11.10;99.90;;;;;;5009294;28;20483;-71
2023/05/20 04:36:27;;;;;;;7.50;6.80;;;11.10;99.90;;;;;;5012670;28;20507;-71
2023/05/20 04:38:56;;;;;;;8.70;7.97;;;11.20;99.90;;;;;;5013250;28;20445;-71
2023/05/20 04:41:23;;;;;;;8.70;7.53;;;11.30;99.90;;;;;;5013351;28;20450;-70
2023/05/20 04:43:52;;;;;;;8.00;7.30;;;11.40;99.90;;;;;;5012671;28;20474;-71
2023/05/20 04:46:20;;;;;;;9.10;8.30;;;11.50;99.90;;;;;;5012805;28;20479;-70
2023/05/20 04:48:53;;;;;;;8.37;7.67;;;11.50;99.90;;;;;;5013141;28;20450;-70
2023/05/20 04:51:24;;;;;;;7.33;6.70;;;11.40;99.90;;;;;;5013467;28;20449;-71
2023/05/20 04:54:00;;;;;;;8.67;7.53;;;11.40;99.90;;;;;;5014979;28;20492;-71
2023/05/20 04:56:29;;;;;;;7.67;6.80;;;11.40;99.90;;;;;;5014399;28;21052;-71
2023/05/20 04:59:05;;;;;;;8.80;7.60;;;11.40;99.90;;;;;;5014463;28;20452;-71
2023/05/20 05:01:33;;;;;;;8.60;7.80;;;11.40;99.90;;;;;;5014729;28;20459;-71
2023/05/20 05:04:03;;;;;;;8.80;7.73;;;11.30;99.90;;;;;;5012406;28;20448;-70
2023/05/20 05:06:31;;;;;;;7.80;7.10;;;11.40;99.90;;;;;;5013152;28;20468;-70
2023/05/20 05:08:59;;;;;;;6.97;6.37;;;11.50;99.90;;;;;;5011757;28;20464;-71
2023/05/20 05:11:27;;;;;;;7.53;6.77;;;11.70;99.90;;;;;;5012840;28;21019;-71
2023/05/20 05:13:55;;;;;;;8.83;7.47;;;11.90;99.90;;;;;;5012206;28;20486;-71
2023/05/20 05:16:23;;;;;;;9.40;6.23;;;12.20;99.90;;;;;;5013055;28;20495;-71
2023/05/20 05:18:51;;;;;;;7.40;6.70;;;12.40;99.90;;;;;;5012723;28;20455;-71
2023/05/20 05:21:25;;;;;;;7.50;6.80;;;12.70;99.90;;;;;;5012250;28;20990;-71
2023/05/20 05:24:09;;;;;;;7.27;6.53;;;13.00;99.90;;;;;;5012232;28;20430;-71
2023/05/20 05:26:52;;;;;;;7.03;6.33;;;13.30;99.80;;;;;;5011621;28;20465;-71
2023/05/20 05:29:26;;;;;;;8.10;7.40;;;13.30;99.20;;;;;;5012808;28;20459;-71
2023/05/20 05:31:56;;;;;;;7.40;6.80;;;13.40;98.80;;;;;;5011429;28;20514;-71
2023/05/20 05:34:24;;;;;;;7.50;5.67;;;13.40;98.40;;;;;;5012352;28;20577;-71
2023/05/20 05:36:54;;;;;;;8.10;6.80;;;13.40;99.50;;;;;;5012497;28;20469;-72
2023/05/20 05:39:22;;;;;;;7.10;6.50;;;13.40;99.10;;;;;;5012476;28;20445;-71
2023/05/20 05:41:49;;;;;;;8.83;6.60;;;13.50;98.30;;;;;;5012483;28;20507;-70
2023/05/20 05:44:17;;;;;;;7.60;6.80;;;13.70;97.70;;;;;;5012016;28;20609;-71
2023/05/20 05:46:45;;;;;;;6.57;5.90;;;13.80;98.00;;;;;;5011859;28;20465;-71
2023/05/20 05:49:13;;;;;;;8.60;7.80;;;14.00;96.60;;;;;;5012031;28;20438;-71
2023/05/20 05:51:41;;;;;;;7.27;6.57;;;14.10;97.00;;;;;;5012430;28;20444;-71
2023/05/20 05:54:11;;;;;;;6.80;6.20;;;14.20;96.90;;;;;;5011882;28;20477;-72
2023/05/20 05:56:40;;;;;;;7.63;6.40;;;14.20;96.10;;;;;;5012073;28;20477;-71
2023/05/20 05:59:11;;;;;;;7.03;6.17;;;14.20;96.40;;;;;;5012161;28;20458;-71
2023/05/20 06:01:46;;;;;;;6.87;6.20;;;14.20;96.20;;;;;;5012230;28;20459;-71
2023/05/20 06:04:16;;;;;;;7.13;6.43;;;14.30;97.00;;;;;;5011794;28;20436;-71
2023/05/20 06:06:49;;;;;;;9.33;6.40;;;14.40;95.80;;;;;;5012001;28;20565;-71
2023/05/20 06:09:19;;;;;;;7.90;7.20;;;14.40;96.00;;;;;;5012452;28;20460;-71
2023/05/20 06:11:57;;;;;;;8.10;7.30;;;14.30;96.80;;;;;;5012224;28;20438;-71
2023/05/20 06:14:28;;;;;;;8.33;7.63;;;14.40;96.70;;;;;;5011990;28;20484;-72
2023/05/20 06:17:11;;;;;;;6.83;6.30;;;14.50;96.80;;;;;;5012192;28;20537;-71
2023/05/20 06:19:41;;;;;;;7.73;7.07;;;14.60;97.10;;;;;;5012009;28;20460;-71
2023/05/20 06:22:11;;;;;;;6.97;6.37;;;14.70;96.60;;;;;;5011801;28;20447;-72
2023/05/20 06:24:49;;;;;;;8.10;6.60;;;14.80;95.90;;;;;;5011407;28;20955;-72
2023/05/20 06:27:25;;;;;;;7.87;7.27;;;14.80;94.90;;;;;;5011692;28;20839;-72
2023/05/20 06:30:02;;;;;;;7.80;7.17;;;14.80;95.80;;;;;;5011700;28;20460;-71
2023/05/20 06:32:33;;;;;;;8.10;7.40;;;14.90;95.60;;;;;;5011403;28;20453;-71
2023/05/20 06:35:04;;;;;;;7.10;6.40;;;15.00;95.50;;;;;;5011716;28;20487;-72
2023/05/20 06:37:38;;;;;;;6.37;5.87;;;15.10;94.70;;;;;;5011126;28;21063;-71
2023/05/20 06:40:09;;;;;;;12.70;6.20;;;15.30;93.90;;;;;;4992570;28;20489;-72
2023/05/20 06:42:37;;;;;;;6.97;6.37;;;15.40;93.90;;;;;;5001426;28;20996;-71
2023/05/20 06:45:06;;;;;;;6.63;5.80;;;15.60;93.60;;;;;;5011091;28;20535;-70
2023/05/20 06:47:34;;;;;;;7.10;6.27;;;15.90;94.00;;;;;;5003910;28;20463;-70
2023/05/20 06:50:02;;;;;;;7.37;6.67;;;16.30;92.20;;;;;;5007298;28;20452;-70
2023/05/20 06:52:30;;;;;;;6.47;5.87;;;16.60;91.10;;;;;;5006702;28;20503;-70
2023/05/20 06:54:58;;;;;;;7.73;6.40;;;16.90;90.20;;;;;;5022343;28;20483;-69
2023/05/20 06:57:28;;;;;;;7.40;6.70;;;17.30;86.00;;;;;;5031714;28;20460;-71
2023/05/20 06:59:56;;;;;;;6.40;5.80;;;17.30;88.60;;;;;;5030387;28;20449;-72
2023/05/20 07:02:24;;;;;;;7.90;5.90;;;17.60;86.30;;;;;;5034731;28;20445;-69
2023/05/20 07:04:52;;;;;;;6.83;6.23;;;17.60;86.50;;;;;;5035029;28;20448;-69
2023/05/20 07:07:20;;;;;;;6.33;5.83;;;17.70;83.30;;;;;;5032571;28;20906;-69
2023/05/20 07:09:48;;;;;;;7.37;6.67;;;17.80;85.00;;;;;;5032004;28;20942;-69
2023/05/20 07:12:16;;;;;;;7.03;6.43;;;17.70;82.40;;;;;;5001505;28;20847;-69
2023/05/20 07:14:46;;;;;;;6.80;6.10;;;17.10;83.30;;;;;;4991594;28;20490;-71
2023/05/20 07:17:15;;;;;;;8.07;7.27;;;16.90;84.80;;;;;;4992221;28;20466;-71
2023/05/20 07:19:43;;;;;;;7.27;6.63;;;16.90;87.10;;;;;;4992409;28;20439;-70
2023/05/20 07:22:12;;;;;;;7.07;6.43;;;16.90;84.80;;;;;;4992436;28;20456;-69
2023/05/20 07:24:40;;;;;;;7.10;6.50;;;16.90;86.10;;;;;;4997594;28;20449;-70
2023/05/20 07:27:08;;;;;;;7.20;6.60;;;17.00;85.50;;;;;;4995405;28;20991;-71
2023/05/20 07:29:36;;;;;;;7.37;6.77;;;17.10;87.10;;;;;;4991119;28;20482;-72
2023/05/20 07:32:07;;;;;;;8.50;6.20;;;17.20;86.80;;;;;;4991393;28;20450;-72
2023/05/20 07:34:35;;;;;;;6.70;6.10;;;17.30;86.40;;;;;;4990882;28;20557;-73
2023/05/20 07:37:03;;;;;;;7.80;7.10;;;17.50;84.40;;;;;;4990086;28;20502;-73
2023/05/20 07:39:31;;;;;;;7.00;6.43;;;17.30;85.00;;;;;;4991445;28;20447;-73
2023/05/20 07:42:01;;;;;;;7.13;6.53;;;17.30;86.40;;;;;;4990850;28;20443;-73
2023/05/20 07:44:29;;;;;;;6.60;6.00;;;17.50;85.60;;;;;;4990400;28;20443;-72
2023/05/20 07:46:57;;;;;;;7.13;6.63;;;17.50;84.20;;;;;;4990383;28;20553;-72
2023/05/20 07:49:27;;;;;;;11.37;6.73;;;17.60;83.30;;;;;;4990568;28;20457;-72
2023/05/20 07:51:55;;;;;;;7.77;7.07;;;17.60;83.50;;;;;;4990433;28;20509;-72
2023/05/20 07:54:23;;;;;;;7.93;6.90;;;17.80;82.00;;;;;;4989926;28;20450;-72
2023/05/20 07:56:51;;;;;;;6.90;6.30;;;17.60;83.30;;;;;;4990482;28;20555;-71
2023/05/20 07:59:20;;;;;;;7.63;6.93;;;17.20;81.60;;;;;;4991208;28;20454;-73
2023/05/20 08:01:48;;;;;;;7.72;7.03;;;17.00;84.30;;;;;;4990355;28;20793;-70
2023/05/20 08:04:16;;;;;;;6.90;6.30;;;17.20;84.70;;;;;;4990481;28;20199;-72
2023/05/20 08:06:45;;;;;;;6.30;5.80;;;17.50;84.50;;;;;;4990571;28;20497;-73
2023/05/20 08:09:14;;;;;;;6.43;5.87;;;18.00;84.70;;;;;;4990494;28;20449;-72
2023/05/20 08:11:42;;;;;;;7.07;6.43;;;18.30;81.70;;;;;;4996592;28;20992;-73
2023/05/20 08:14:11;;;;;;;7.07;6.47;;;18.70;80.20;;;;;;4996741;28;20875;-73
2023/05/20 08:16:39;;;;;;;7.30;6.70;;;18.70;77.20;;;;;;4996498;28;20481;-71
2023/05/20 08:19:07;;;;;;;6.50;5.80;;;18.70;76.90;;;;;;4997106;28;20478;-70
2023/05/20 08:21:35;;;;;;;6.80;6.20;;;18.30;74.10;;;;;;4996995;28;20866;-71
2023/05/20 08:24:05;;;;;;;6.77;6.27;;;18.30;76.70;;;;;;4996517;28;20455;-73
2023/05/20 08:26:33;;;;;;;6.43;5.93;;;18.50;80.60;;;;;;4996700;28;20489;-73
2023/05/20 08:29:01;;;;;;;7.17;6.63;;;19.00;80.00;;;;;;4996973;28;20446;-73
2023/05/20 08:31:29;;;;;;;7.73;7.13;;;19.40;73.50;;;;;;4997262;28;20513;-74
2023/05/20 08:33:58;;;;;;;6.07;5.57;;;19.00;74.50;;;;;;4996263;28;20965;-74
2023/05/20 08:36:26;;;;;;;7.20;6.50;;;19.10;76.70;;;;;;4996735;28;21001;-71
2023/05/20 08:38:54;;;;;;;7.80;7.10;;;19.40;71.80;;;;;;4996518;28;20517;-73
2023/05/20 08:41:24;;;;;;;7.40;6.70;;;18.90;73.40;;;;;;4996671;28;20446;-71
2023/05/20 08:43:56;;;;;;;7.40;6.70;;;18.80;73.40;;;;;;5010181;28;20445;-74
2023/05/20 08:46:24;;;;;;;6.33;5.73;;;18.90;76.60;;;;;;5016125;28;20453;-73
2023/05/20 08:48:52;;;;;;;6.17;5.67;;;19.40;77.80;;;;;;5016285;28;20511;-74
2023/05/20 08:51:22;;;;;;;7.53;6.43;;;19.60;74.40;;;;;;5016252;28;20457;-72
2023/05/20 08:53:51;;;;;;;7.10;6.57;;;20.00;75.00;;;;;;5015926;28;21250;-74
2023/05/20 08:56:20;;;;;;;8.07;7.03;;;20.30;73.20;;;;;;5016063;28;20485;-74
2023/05/20 08:58:50;;;;;;;7.33;6.30;;;20.50;71.20;;;;;;5016599;28;20528;-73
2023/05/20 09:01:18;;;;;;;8.00;7.30;;;20.70;71.20;;;;;;5016573;28;20572;-71
2023/05/20 09:03:48;;;;;;;7.50;6.70;;;20.90;66.90;;;;;;5016109;28;20505;-72
2023/05/20 09:06:18;;;;;;;6.97;6.27;;;21.30;69.00;;;;;;5016083;28;20528;-72
2023/05/20 09:08:49;;;;;;;7.83;5.77;;;21.70;67.10;;;;;;5016251;28;21030;-71
2023/05/20 09:11:17;;;;;;;7.00;6.40;;;21.80;62.90;;;;;;5016778;28;20456;-72
2023/05/20 09:13:44;;;;;;;7.17;6.47;;;21.30;65.00;;;;;;5015896;28;20782;-72
2023/05/20 09:16:14;;;;;;;6.77;6.23;;;21.40;68.20;;;;;;5016063;28;20525;-73
2023/05/20 09:18:42;;;;;;;6.37;5.83;;;21.40;66.80;;;;;;5016140;28;21013;-72
2023/05/20 09:21:10;;;;;;;6.40;5.90;;;21.60;68.50;;;;;;5014677;28;20541;-72
2023/05/20 09:23:38;;;;;;;6.60;6.03;;;21.70;65.40;;;;;;5012532;28;20944;-72
2023/05/20 09:26:06;;;;;;;6.70;6.20;;;21.70;63.30;;;;;;5012298;28;20538;-72
2023/05/20 09:28:37;;;;;;;6.23;5.73;;;21.70;65.80;;;;;;5009779;28;20442;-73
2023/05/20 09:31:07;;;;;;;6.80;6.23;;;21.90;65.60;;;;;;5016506;28;20916;-73
2023/05/20 09:33:37;;;;;;;8.03;7.33;;;22.20;62.40;;;;;;5015991;28;20444;-72
2023/05/20 09:36:07;;;;;;;7.13;6.50;;;21.90;61.40;;;;;;5009568;28;20498;-72
2023/05/20 09:38:38;;;;;;;7.23;6.63;;;21.30;63.00;;;;;;5005156;28;20813;-72
2023/05/20 09:41:10;;;;;;;7.63;6.93;;;20.80;66.70;;;;;;5006207;28;20429;-73
2023/05/20 09:43:40;;;;;;;7.33;6.73;;;20.30;65.80;;;;;;5010346;28;20477;-71
2023/05/20 09:46:08;;;;;;;8.30;7.50;;;20.00;68.50;;;;;;5009444;28;20528;-73
2023/05/20 09:48:38;;;;;;;7.30;6.70;;;19.80;68.40;;;;;;5010830;28;20855;-73
2023/05/20 09:51:07;;;;;;;9.57;6.37;;;19.90;68.30;;;;;;5011028;28;20541;-73
2023/05/20 09:53:35;;;;;;;6.10;5.70;;;20.00;70.80;;;;;;5008018;28;20450;-73
2023/05/20 09:56:04;;;;;;;7.43;5.90;;;21.00;70.70;;;;;;5010934;28;20478;-72
2023/05/20 09:58:35;;;;;;;6.73;6.17;;;22.40;62.80;;;;;;5012284;28;20438;-73
2023/05/20 10:01:03;;;;;;;8.17;6.20;;;23.30;62.60;;;;;;5010930;28;20544;-74
2023/05/20 10:03:32;;;;;;;6.37;5.87;;;23.70;58.50;;;;;;5011406;28;20496;-74
2023/05/20 10:06:23;;;;;;;7.40;6.80;;;23.70;59.30;;;;;;5011496;28;20430;-73
2023/05/20 10:09:05;;;;;;;7.57;6.80;;;24.10;56.30;;;;;;5009526;28;20994;-74
2023/05/20 10:11:40;;;;;;;6.90;6.30;;;23.20;60.80;;;;;;5011572;28;20442;-73
2023/05/20 10:14:35;;;;;;;8.07;7.20;;;23.50;59.30;;;;;;5011728;28;20438;-74
2023/05/20 10:17:14;;;;;;;7.57;6.77;;;23.60;57.60;;;;;;5009951;28;20576;-73
2023/05/20 10:19:43;;;;;;;7.27;6.70;;;23.30;57.50;;;;;;5004363;28;20489;-72
2023/05/20 10:22:13;;;;;;;8.83;6.23;;;22.90;58.10;;;;;;5009151;28;20493;-74
2023/05/20 10:24:43;;;;;;;6.73;6.17;;;22.60;62.40;;;;;;5011102;28;20450;-74
2023/05/20 10:27:13;;;;;;;6.97;6.43;;;23.30;59.50;;;;;;5012852;28;20551;-75
2023/05/20 10:29:45;;;;;;;6.53;5.93;;;24.10;56.90;;;;;;5010726;28;20496;-75
2023/05/20 10:32:26;;;;;;;7.10;6.40;;;24.10;54.70;;;;;;5009791;28;20456;-75
2023/05/20 10:34:59;;;;;;;6.53;6.03;;;23.90;58.30;;;;;;5010677;28;20488;-74
2023/05/20 10:37:32;;;;;;;10.47;9.57;;;23.20;57.10;;;;;;5008987;28;20477;-73
2023/05/20 10:40:07;;;;;;;7.90;7.10;;;23.20;59.90;;;;;;5011295;28;20937;-76
2023/05/20 10:42:35;;;;;;;6.93;6.33;;;23.20;57.10;;;;;;5011695;28;20487;-75
2023/05/20 10:45:05;;;;;;;6.73;6.23;;;23.50;58.90;;;;;;5011698;28;21050;-75
2023/05/20 10:47:34;;;;;;;6.33;5.73;;;23.80;57.80;;;;;;5011219;28;21145;-73
2023/05/20 10:50:04;;;;;;;6.37;5.77;;;23.80;55.80;;;;;;5011684;28;20963;-73
2023/05/20 10:52:36;;;;;;;6.50;6.00;;;23.70;57.20;;;;;;5011004;28;20867;-74
2023/05/20 10:55:05;;;;;;;6.83;6.33;;;23.90;56.70;;;;;;5011809;28;20528;-74
2023/05/20 10:57:34;;;;;;;7.07;6.43;;;24.10;59.00;;;;;;5011286;28;20577;-74
2023/05/20 11:00:04;;;;;;;6.33;5.70;;;24.30;55.10;;;;;;5009515;28;20439;-74
2023/05/20 11:02:34;;;;;;;6.60;6.10;;;24.10;56.50;;;;;;5005126;28;20450;-75
2023/05/20 11:05:03;;;;;;;6.83;6.13;;;23.50;54.40;;;;;;5010586;28;20481;-74
2023/05/20 11:07:32;;;;;;;6.60;5.83;;;23.00;57.10;;;;;;5010527;28;20904;-73
2023/05/20 11:10:02;;;;;;;6.23;5.73;;;23.90;56.30;;;;;;5010531;28;20807;-73
2023/05/20 11:12:32;;;;;;;6.50;5.90;;;24.50;55.80;;;;;;5005183;28;20456;-73
2023/05/20 11:15:01;;;;;;;5.60;5.10;;;25.00;54.50;;;;;;4996844;28;20445;-74
2023/05/20 11:17:29;;;;;;;6.37;5.77;;;25.80;52.50;;;;;;5002031;28;20474;-72
2023/05/20 11:19:59;;;;;;;6.03;5.43;;;26.30;52.40;;;;;;5002434;28;20514;-73
2023/05/20 11:22:27;;;;;;;6.33;5.80;;;26.40;51.80;;;;;;5000476;28;20458;-71
2023/05/20 11:24:55;;;;;;;6.60;5.90;;;26.20;50.30;;;;;;5001113;28;20534;-73
2023/05/20 11:27:24;;;;;;;6.53;6.03;;;26.00;50.40;;;;;;5000112;28;21009;-71
2023/05/20 11:29:52;;;;;;;6.63;6.03;;;25.90;52.20;;;;;;5003139;28;20900;-72
2023/05/20 11:32:21;;;;;;;7.20;6.70;;;26.20;52.10;;;;;;5001436;28;20823;-73
2023/05/20 11:34:52;;;;;;;6.57;6.07;;;25.30;51.00;;;;;;5001803;28;21176;-74
2023/05/20 11:37:20;;;;;;;6.77;6.20;;;24.40;54.10;;;;;;4995676;28;20481;-72
2023/05/20 11:39:48;;;;;;;7.13;6.50;;;24.00;52.30;;;;;;4999261;28;20481;-73
2023/05/20 11:42:16;;;;;;;6.73;6.23;;;23.20;54.30;;;;;;5010641;28;20533;-71
2023/05/20 11:44:47;;;;;;;8.53;7.80;;;23.30;57.80;;;;;;5008769;28;21003;-74
2023/05/20 11:47:15;;;;;;;6.40;5.90;;;24.30;56.50;;;;;;5009332;28;20870;-73
2023/05/20 11:49:48;;;;;;;6.63;6.13;;;25.60;53.60;;;;;;5010324;28;20945;-74
2023/05/20 11:52:16;;;;;;;6.13;5.70;;;25.60;51.90;;;;;;5010173;28;20880;-74
2023/05/20 11:54:44;;;;;;;6.57;5.97;;;25.50;51.90;;;;;;5010163;28;20480;-74
2023/05/20 11:57:12;;;;;;;7.20;6.53;;;25.60;51.90;;;;;;5010131;28;20481;-74
2023/05/20 11:59:40;;;;;;;6.73;6.20;;;25.70;52.10;;;;;;5010188;28;20462;-74
2023/05/20 12:02:10;;;;;;;6.73;6.07;;;25.30;54.00;;;;;;5008277;28;20449;-74
2023/05/20 12:04:38;;;;;;;6.90;6.40;;;25.30;53.00;;;;;;5003453;28;20442;-75
2023/05/20 12:07:08;;;;;;;6.70;6.20;;;24.50;52.30;;;;;;5003564;28;20464;-75
2023/05/20 12:09:36;;;;;;;7.10;6.60;;;23.80;54.20;;;;;;5006696;28;20446;-74
2023/05/20 12:12:04;;;;;;;6.33;5.83;;;23.80;55.70;;;;;;5006188;28;20458;-73
2023/05/20 12:14:32;;;;;;;6.57;6.07;;;24.30;54.10;;;;;;5006623;28;20445;-74
2023/05/20 12:17:00;;;;;;;6.67;6.27;;;24.60;55.70;;;;;;4999908;28;20485;-74
2023/05/20 12:19:29;;;;;;;7.00;6.10;;;24.70;51.60;;;;;;5004663;28;20477;-75
2023/05/20 12:21:59;;;;;;;6.77;6.17;;;24.70;53.00;;;;;;5002958;28;20461;-74
2023/05/20 12:24:27;;;;;;;6.23;5.73;;;24.90;55.00;;;;;;5000797;28;20453;-73
2023/05/20 12:26:55;;;;;;;5.77;5.37;;;25.10;50.60;;;;;;5002435;28;21018;-74
2023/05/20 12:29:23;;;;;;;5.70;5.20;;;26.40;55.10;;;;;;5003742;28;20466;-75
2023/05/20 12:31:51;;;;;;;8.27;4.97;;;28.60;49.30;;;;;;4999425;28;20439;-75
2023/05/20 12:34:19;;;;;;;5.80;5.30;;;29.70;45.90;;;;;;5000291;28;20548;-74
2023/05/20 12:36:49;;;;;;;6.50;6.00;;;29.20;45.40;;;;;;5002623;28;20466;-75
2023/05/20 12:39:18;;;;;;;5.60;5.20;;;29.00;43.80;;;;;;5008108;28;21101;-75
2023/05/20 12:41:46;;;;;;;5.80;5.30;;;28.80;44.70;;;;;;5008238;28;20443;-75
2023/05/20 12:44:14;;;;;;;6.33;5.83;;;28.70;47.70;;;;;;5009739;28;20521;-75
2023/05/20 12:46:42;;;;;;;5.80;5.30;;;28.30;44.80;;;;;;5009764;28;20545;-75
2023/05/20 12:49:10;;;;;;;6.80;6.07;;;27.10;47.20;;;;;;5009920;28;20438;-73
2023/05/20 12:51:38;;;;;;;6.13;5.63;;;27.30;48.10;;;;;;5009708;28;20446;-73
2023/05/20 12:54:08;;;;;;;8.30;6.10;;;26.80;46.20;;;;;;5009595;28;20883;-75
2023/05/20 12:56:36;;;;;;;6.07;5.47;;;26.30;49.80;;;;;;5009517;28;20469;-75